sensor_id;sensor_type;location;lat;lon;timestamp;temperature;humidity
7366;DHT22;3723;52.220;8.792;2023-09-18T00:09:21;17.30;99.90
7366;DHT22;3723;52.220;8.792;2023-09-18T00:11:48;17.30;99.90
7366;DHT22;3723;52.220;8.792;2023-09-18T00:28:05;17.20;99.90
7366;DHT22;3723;52.220;8.792;2023-09-18T00:43:47;17.30;99.90
7366;DHT22;3723;52.220;8.792;2023-09-18T00:46:46;17.40;99.90
7366;DHT22;3723;52.220;8.792;2023-09-18T00:49:21;17.40;99.90
7366;DHT22;3723;52.220;8.792;2023-09-18T00:51:58;17.30;99.90
7366;DHT22;3723;52.220;8.792;2023-09-18T00:54:39;17.30;99.90
7366;DHT22;3723;52.220;8.792;2023-09-18T00:57:08;17.30;99.90
7366;DHT22;3723;52.220;8.792;2023-09-18T01:05:52;17.30;99.90
7366;DHT22;3723;52.220;8.792;2023-09-18T01:08:41;17.40;99.90
7366;DHT22;3723;52.220;8.792;2023-09-18T01:15:23;17.30;99.90
7366;DHT22;3723;52.220;8.792;2023-09-18T01:18:05;17.30;99.90
7366;DHT22;3723;52.220;8.792;2023-09-18T01:20:32;17.20;99.90
7366;DHT22;3723;52.220;8.792;2023-09-18T01:23:07;17.20;99.90
7366;DHT22;3723;52.220;8.792;2023-09-18T01:25:37;17.10;99.90
7366;DHT22;3723;52.220;8.792;2023-09-18T01:28:04;17.20;99.90
7366;DHT22;3723;52.220;8.792;2023-09-18T01:30:41;17.20;99.90
7366;DHT22;3723;52.220;8.792;2023-09-18T01:33:17;17.20;99.90
7366;DHT22;3723;52.220;8.792;2023-09-18T01:35:51;17.20;99.90
7366;DHT22;3723;52.220;8.792;2023-09-18T01:38:23;17.20;99.90
7366;DHT22;3723;52.220;8.792;2023-09-18T01:40:51;17.20;99.90
7366;DHT22;3723;52.220;8.792;2023-09-18T01:43:19;17.20;99.90
7366;DHT22;3723;52.220;8.792;2023-09-18T01:45:46;17.30;99.90
7366;DHT22;3723;52.220;8.792;2023-09-18T01:48:14;17.20;99.90
7366;DHT22;3723;52.220;8.792;2023-09-18T01:50:44;17.30;99.90
7366;DHT22;3723;52.220;8.792;2023-09-18T01:53:17;17.20;99.90
7366;DHT22;3723;52.220;8.792;2023-09-18T01:55:45;17.20;99.90
7366;DHT22;3723;52.220;8.792;2023-09-18T01:58:34;17.20;99.90
7366;DHT22;3723;52.220;8.792;2023-09-18T02:01:44;17.20;99.90
7366;DHT22;3723;52.220;8.792;2023-09-18T02:07:26;17.20;99.90
7366;DHT22;3723;52.220;8.792;2023-09-18T02:09:53;17.20;99.90
7366;DHT22;3723;52.220;8.792;2023-09-18T02:12:28;17.20;99.90
7366;DHT22;3723;52.220;8.792;2023-09-18T02:14:55;17.20;99.90
7366;DHT22;3723;52.220;8.792;2023-09-18T02:17:24;17.20;99.90
7366;DHT22;3723;52.220;8.792;2023-09-18T02:19:50;17.20;99.90
7366;DHT22;3723;52.220;8.792;2023-09-18T02:22:33;17.20;99.90
7366;DHT22;3723;52.220;8.792;2023-09-18T02:25:06;17.30;99.90
7366;DHT22;3723;52.220;8.792;2023-09-18T02:27:45;17.30;99.90
7366;DHT22;3723;52.220;8.792;2023-09-18T02:30:12;17.30;99.90
7366;DHT22;3723;52.220;8.792;2023-09-18T02:32:39;17.20;99.90
7366;DHT22;3723;52.220;8.792;2023-09-18T02:35:07;17.20;99.90
7366;DHT22;3723;52.220;8.792;2023-09-18T02:37:52;17.30;99.90
7366;DHT22;3723;52.220;8.792;2023-09-18T02:40:29;17.30;99.90
7366;DHT22;3723;52.220;8.792;2023-09-18T02:43:12;17.30;99.90
7366;DHT22;3723;52.220;8.792;2023-09-18T02:45:45;17.30;99.90
7366;DHT22;3723;52.220;8.792;2023-09-18T02:48:12;17.20;93.20
7366;DHT22;3723;52.220;8.792;2023-09-18T02:50:42;17.30;37.00
7366;DHT22;3723;52.220;8.792;2023-09-18T02:53:34;17.20;83.50
7366;DHT22;3723;52.220;8.792;2023-09-18T02:56:05;17.20;43.00
7366;DHT22;3723;52.220;8.792;2023-09-18T02:58:53;17.30;50.20
7366;DHT22;3723;52.220;8.792;2023-09-18T03:01:24;17.20;90.50
7366;DHT22;3723;52.220;8.792;2023-09-18T03:03:52;17.30;99.90
7366;DHT22;3723;52.220;8.792;2023-09-18T03:06:19;17.30;99.90
7366;DHT22;3723;52.220;8.792;2023-09-18T03:08:55;17.30;99.90
7366;DHT22;3723;52.220;8.792;2023-09-18T03:11:37;17.20;99.90
7366;DHT22;3723;52.220;8.792;2023-09-18T03:14:15;17.30;99.90
7366;DHT22;3723;52.220;8.792;2023-09-18T03:16:53;17.20;99.90
7366;DHT22;3723;52.220;8.792;2023-09-18T03:19:23;17.20;99.90
7366;DHT22;3723;52.220;8.792;2023-09-18T03:21:50;17.20;96.40
7366;DHT22;3723;52.220;8.792;2023-09-18T03:24:17;17.30;99.90
7366;DHT22;3723;52.220;8.792;2023-09-18T03:26:44;17.40;99.90
7366;DHT22;3723;52.220;8.792;2023-09-18T03:29:15;17.30;79.20
7366;DHT22;3723;52.220;8.792;2023-09-18T03:31:45;17.40;60.10
7366;DHT22;3723;52.220;8.792;2023-09-18T03:34:20;17.40;57.70
7366;DHT22;3723;52.220;8.792;2023-09-18T03:36:57;17.40;52.20
7366;DHT22;3723;52.220;8.792;2023-09-18T03:39:26;17.40;52.40
7366;DHT22;3723;52.220;8.792;2023-09-18T03:41:53;17.40;1.00
7366;DHT22;3723;52.220;8.792;2023-09-18T03:44:42;17.40;1.00
7366;DHT22;3723;52.220;8.792;2023-09-18T03:47:09;17.40;1.00
7366;DHT22;3723;52.220;8.792;2023-09-18T03:49:36;17.40;1.00
7366;DHT22;3723;52.220;8.792;2023-09-18T03:52:15;17.50;1.00
7366;DHT22;3723;52.220;8.792;2023-09-18T03:54:44;17.50;1.00
7366;DHT22;3723;52.220;8.792;2023-09-18T03:57:12;17.50;1.00
7366;DHT22;3723;52.220;8.792;2023-09-18T03:59:51;17.50;1.00
7366;DHT22;3723;52.220;8.792;2023-09-18T04:02:21;17.50;1.00
7366;DHT22;3723;52.220;8.792;2023-09-18T04:04:54;17.60;1.00
7366;DHT22;3723;52.220;8.792;2023-09-18T04:07:28;17.60;1.00
7366;DHT22;3723;52.220;8.792;2023-09-18T04:10:10;17.60;1.00
7366;DHT22;3723;52.220;8.792;2023-09-18T04:12:46;17.70;1.00
7366;DHT22;3723;52.220;8.792;2023-09-18T04:15:54;17.70;1.00
7366;DHT22;3723;52.220;8.792;2023-09-18T04:18:22;17.70;1.00
7366;DHT22;3723;52.220;8.792;2023-09-18T04:21:01;17.70;1.00
7366;DHT22;3723;52.220;8.792;2023-09-18T04:23:28;17.80;1.00
7366;DHT22;3723;52.220;8.792;2023-09-18T04:26:15;17.90;1.00
7366;DHT22;3723;52.220;8.792;2023-09-18T04:29:23;17.90;1.00
7366;DHT22;3723;52.220;8.792;2023-09-18T04:32:13;18.00;1.00
7366;DHT22;3723;52.220;8.792;2023-09-18T04:34:40;18.10;1.00
7366;DHT22;3723;52.220;8.792;2023-09-18T04:37:25;18.10;1.00
7366;DHT22;3723;52.220;8.792;2023-09-18T04:39:52;18.10;1.00
7366;DHT22;3723;52.220;8.792;2023-09-18T04:42:24;18.10;1.00
7366;DHT22;3723;52.220;8.792;2023-09-18T04:45:34;18.10;1.00
7366;DHT22;3723;52.220;8.792;2023-09-18T04:48:14;18.10;1.00
7366;DHT22;3723;52.220;8.792;2023-09-18T05:13:26;17.90;1.00
7366;DHT22;3723;52.220;8.792;2023-09-18T05:16:08;18.00;1.00
7366;DHT22;3723;52.220;8.792;2023-09-18T05:19:16;18.00;1.00
7366;DHT22;3723;52.220;8.792;2023-09-18T05:23:21;18.10;1.00
7366;DHT22;3723;52.220;8.792;2023-09-18T05:25:03;18.10;1.00
7366;DHT22;3723;52.220;8.792;2023-09-18T05:27:31;18.30;1.00
7366;DHT22;3723;52.220;8.792;2023-09-18T05:30:00;18.50;1.00
7366;DHT22;3723;52.220;8.792;2023-09-18T05:32:28;18.80;1.00
7366;DHT22;3723;52.220;8.792;2023-09-18T05:35:10;19.30;1.00
7366;DHT22;3723;52.220;8.792;2023-09-18T05:37:38;19.70;1.00
7366;DHT22;3723;52.220;8.792;2023-09-18T05:40:13;20.10;1.00
7366;DHT22;3723;52.220;8.792;2023-09-18T05:42:43;20.40;99.90
7366;DHT22;3723;52.220;8.792;2023-09-18T05:45:13;20.50;99.90
7366;DHT22;3723;52.220;8.792;2023-09-18T05:47:41;20.40;99.90
7366;DHT22;3723;52.220;8.792;2023-09-18T05:50:10;20.30;99.90
7366;DHT22;3723;52.220;8.792;2023-09-18T05:52:40;20.20;99.90
7366;DHT22;3723;52.220;8.792;2023-09-18T05:55:08;20.10;99.90
7366;DHT22;3723;52.220;8.792;2023-09-18T05:57:35;20.10;99.90
7366;DHT22;3723;52.220;8.792;2023-09-18T06:00:03;20.10;99.90
7366;DHT22;3723;52.220;8.792;2023-09-18T06:02:33;20.10;99.90
7366;DHT22;3723;52.220;8.792;2023-09-18T06:05:00;20.10;99.90
7366;DHT22;3723;52.220;8.792;2023-09-18T06:07:32;20.10;99.90
7366;DHT22;3723;52.220;8.792;2023-09-18T06:09:59;20.20;99.90
7366;DHT22;3723;52.220;8.792;2023-09-18T06:12:26;20.30;99.90
7366;DHT22;3723;52.220;8.792;2023-09-18T06:14:55;20.50;99.90
7366;DHT22;3723;52.220;8.792;2023-09-18T06:17:22;20.60;99.90
7366;DHT22;3723;52.220;8.792;2023-09-18T06:19:52;20.70;99.90
7366;DHT22;3723;52.220;8.792;2023-09-18T06:22:19;20.80;99.90
7366;DHT22;3723;52.220;8.792;2023-09-18T06:24:46;21.00;99.90
7366;DHT22;3723;52.220;8.792;2023-09-18T06:27:13;21.00;99.90
7366;DHT22;3723;52.220;8.792;2023-09-18T06:29:39;21.00;99.90
7366;DHT22;3723;52.220;8.792;2023-09-18T06:32:08;21.00;99.90
7366;DHT22;3723;52.220;8.792;2023-09-18T06:34:41;21.10;99.90
7366;DHT22;3723;52.220;8.792;2023-09-18T06:37:10;21.10;99.90
7366;DHT22;3723;52.220;8.792;2023-09-18T06:39:40;21.10;99.90
7366;DHT22;3723;52.220;8.792;2023-09-18T06:42:07;21.10;99.90
7366;DHT22;3723;52.220;8.792;2023-09-18T06:44:40;21.20;99.90
7366;DHT22;3723;52.220;8.792;2023-09-18T06:47:07;21.30;99.90
7366;DHT22;3723;52.220;8.792;2023-09-18T06:49:35;21.30;99.90
7366;DHT22;3723;52.220;8.792;2023-09-18T06:52:02;21.30;99.90
7366;DHT22;3723;52.220;8.792;2023-09-18T06:54:39;21.30;99.90
7366;DHT22;3723;52.220;8.792;2023-09-18T06:57:10;21.40;99.90
7366;DHT22;3723;52.220;8.792;2023-09-18T06:59:37;21.40;99.90
7366;DHT22;3723;52.220;8.792;2023-09-18T07:02:04;21.50;99.90
7366;DHT22;3723;52.220;8.792;2023-09-18T07:04:40;21.60;99.90
7366;DHT22;3723;52.220;8.792;2023-09-18T07:07:14;21.90;99.90
7366;DHT22;3723;52.220;8.792;2023-09-18T07:13:34;22.80;99.90
7366;DHT22;3723;52.220;8.792;2023-09-18T07:23:26;23.10;99.90
7366;DHT22;3723;52.220;8.792;2023-09-18T07:33:26;23.80;99.90
7366;DHT22;3723;52.220;8.792;2023-09-18T08:36:53;24.20;99.90
7366;DHT22;3723;52.220;8.792;2023-09-18T08:39:52;24.10;99.90
7366;DHT22;3723;52.220;8.792;2023-09-18T08:42:52;24.00;99.90
7366;DHT22;3723;52.220;8.792;2023-09-18T08:45:23;23.90;99.90
7366;DHT22;3723;52.220;8.792;2023-09-18T08:47:56;23.90;99.90
7366;DHT22;3723;52.220;8.792;2023-09-18T08:50:27;23.90;99.90
7366;DHT22;3723;52.220;8.792;2023-09-18T08:53:08;23.90;99.90
7366;DHT22;3723;52.220;8.792;2023-09-18T08:55:43;23.80;99.90
7366;DHT22;3723;52.220;8.792;2023-09-18T08:58:14;23.80;99.90
7366;DHT22;3723;52.220;8.792;2023-09-18T09:00:51;23.70;99.90
7366;DHT22;3723;52.220;8.792;2023-09-18T09:03:30;23.70;99.90
7366;DHT22;3723;52.220;8.792;2023-09-18T09:06:05;23.60;99.90
7366;DHT22;3723;52.220;8.792;2023-09-18T09:08:36;23.60;99.90
7366;DHT22;3723;52.220;8.792;2023-09-18T09:11:06;23.60;99.90
7366;DHT22;3723;52.220;8.792;2023-09-18T09:13:36;23.60;99.90
7366;DHT22;3723;52.220;8.792;2023-09-18T09:16:05;23.60;99.90
7366;DHT22;3723;52.220;8.792;2023-09-18T09:18:54;23.60;99.90
7366;DHT22;3723;52.220;8.792;2023-09-18T09:21:21;23.60;99.90
7366;DHT22;3723;52.220;8.792;2023-09-18T09:23:51;23.50;99.90
7366;DHT22;3723;52.220;8.792;2023-09-18T09:26:32;23.50;99.90
7366;DHT22;3723;52.220;8.792;2023-09-18T09:29:15;23.50;99.90
7366;DHT22;3723;52.220;8.792;2023-09-18T09:31:48;23.50;99.90
7366;DHT22;3723;52.220;8.792;2023-09-18T09:34:25;23.50;99.90
7366;DHT22;3723;52.220;8.792;2023-09-18T09:37:06;23.40;99.90
7366;DHT22;3723;52.220;8.792;2023-09-18T09:39:54;23.40;99.90
7366;DHT22;3723;52.220;8.792;2023-09-18T09:42:25;23.30;99.90
7366;DHT22;3723;52.220;8.792;2023-09-18T09:45:04;23.30;99.90
7366;DHT22;3723;52.220;8.792;2023-09-18T09:47:35;23.30;99.90
7366;DHT22;3723;52.220;8.792;2023-09-18T09:50:08;23.50;99.90
7366;DHT22;3723;52.220;8.792;2023-09-18T09:52:57;23.80;99.90
7366;DHT22;3723;52.220;8.792;2023-09-18T09:55:36;24.10;99.90
7366;DHT22;3723;52.220;8.792;2023-09-18T09:58:16;24.30;99.90
7366;DHT22;3723;52.220;8.792;2023-09-18T10:01:11;24.30;99.90
7366;DHT22;3723;52.220;8.792;2023-09-18T10:04:00;24.20;99.90
7366;DHT22;3723;52.220;8.792;2023-09-18T10:07:10;24.00;99.90
7366;DHT22;3723;52.220;8.792;2023-09-18T10:09:47;23.90;99.90
7366;DHT22;3723;52.220;8.792;2023-09-18T10:16:07;23.80;99.90
7366;DHT22;3723;52.220;8.792;2023-09-18T10:19:24;23.70;99.90
7366;DHT22;3723;52.220;8.792;2023-09-18T10:22:06;23.70;99.90
7366;DHT22;3723;52.220;8.792;2023-09-18T10:24:39;23.70;99.90
7366;DHT22;3723;52.220;8.792;2023-09-18T10:27:13;23.70;99.90
7366;DHT22;3723;52.220;8.792;2023-09-18T10:30:24;23.80;99.90
7366;DHT22;3723;52.220;8.792;2023-09-18T10:36:09;24.30;99.90
7366;DHT22;3723;52.220;8.792;2023-09-18T10:42:19;24.80;99.90
7366;DHT22;3723;52.220;8.792;2023-09-18T10:45:02;25.10;99.90
7366;DHT22;3723;52.220;8.792;2023-09-18T10:47:31;25.10;99.90
7366;DHT22;3723;52.220;8.792;2023-09-18T10:50:42;24.90;99.90
7366;DHT22;3723;52.220;8.792;2023-09-18T10:53:09;24.70;99.90
7366;DHT22;3723;52.220;8.792;2023-09-18T10:56:03;24.60;99.90
7366;DHT22;3723;52.220;8.792;2023-09-18T10:58:56;24.60;99.90
7366;DHT22;3723;52.220;8.792;2023-09-18T11:01:43;24.70;99.90
7366;DHT22;3723;52.220;8.792;2023-09-18T11:04:23;24.70;99.90
7366;DHT22;3723;52.220;8.792;2023-09-18T11:07:08;24.70;99.90
7366;DHT22;3723;52.220;8.792;2023-09-18T11:09:45;24.90;99.90
7366;DHT22;3723;52.220;8.792;2023-09-18T11:12:19;25.10;99.90
7366;DHT22;3723;52.220;8.792;2023-09-18T11:15:25;25.30;99.90
7366;DHT22;3723;52.220;8.792;2023-09-18T11:18:21;25.40;99.90
7366;DHT22;3723;52.220;8.792;2023-09-18T11:21:06;25.40;99.90
7366;DHT22;3723;52.220;8.792;2023-09-18T11:24:15;25.40;99.90
7366;DHT22;3723;52.220;8.792;2023-09-18T11:26:47;25.10;99.90
7366;DHT22;3723;52.220;8.792;2023-09-18T11:29:36;24.80;99.90
7366;DHT22;3723;52.220;8.792;2023-09-18T11:32:39;24.60;99.90
7366;DHT22;3723;52.220;8.792;2023-09-18T11:35:07;24.40;99.90
7366;DHT22;3723;52.220;8.792;2023-09-18T11:37:39;24.40;99.90
7366;DHT22;3723;52.220;8.792;2023-09-18T11:40:33;24.50;99.90
7366;DHT22;3723;52.220;8.792;2023-09-18T11:43:25;24.70;99.90
7366;DHT22;3723;52.220;8.792;2023-09-18T11:45:55;24.90;99.90
7366;DHT22;3723;52.220;8.792;2023-09-18T11:48:23;24.90;99.90
7366;DHT22;3723;52.220;8.792;2023-09-18T11:50:54;25.00;99.90
7366;DHT22;3723;52.220;8.792;2023-09-18T11:53:24;25.30;99.90
7366;DHT22;3723;52.220;8.792;2023-09-18T11:55:54;25.40;99.90
7366;DHT22;3723;52.220;8.792;2023-09-18T11:58:21;25.50;99.90
7366;DHT22;3723;52.220;8.792;2023-09-18T12:00:49;25.50;99.90
7366;DHT22;3723;52.220;8.792;2023-09-18T12:03:17;25.90;99.90
7366;DHT22;3723;52.220;8.792;2023-09-18T12:05:52;26.70;99.90
7366;DHT22;3723;52.220;8.792;2023-09-18T12:08:22;27.90;99.90
7366;DHT22;3723;52.220;8.792;2023-09-18T12:10:53;28.90;99.90
7366;DHT22;3723;52.220;8.792;2023-09-18T12:13:21;28.60;99.90
7366;DHT22;3723;52.220;8.792;2023-09-18T12:15:48;28.10;99.90
7366;DHT22;3723;52.220;8.792;2023-09-18T12:18:16;27.50;99.90
7366;DHT22;3723;52.220;8.792;2023-09-18T12:20:51;27.10;99.90
7366;DHT22;3723;52.220;8.792;2023-09-18T12:23:18;26.70;99.90
7366;DHT22;3723;52.220;8.792;2023-09-18T12:25:48;26.30;99.90
7366;DHT22;3723;52.220;8.792;2023-09-18T12:28:21;26.00;99.90
7366;DHT22;3723;52.220;8.792;2023-09-18T12:31:13;26.00;99.90
7366;DHT22;3723;52.220;8.792;2023-09-18T12:33:45;26.00;99.90
7366;DHT22;3723;52.220;8.792;2023-09-18T12:36:27;25.80;99.90
7366;DHT22;3723;52.220;8.792;2023-09-18T12:39:00;25.60;99.90
7366;DHT22;3723;52.220;8.792;2023-09-18T12:41:35;25.30;99.90
7366;DHT22;3723;52.220;8.792;2023-09-18T12:44:18;25.20;99.90
7366;DHT22;3723;52.220;8.792;2023-09-18T12:49:59;25.20;99.90
7366;DHT22;3723;52.220;8.792;2023-09-18T12:52:34;25.20;99.90
7366;DHT22;3723;52.220;8.792;2023-09-18T12:55:08;25.10;99.90
7366;DHT22;3723;52.220;8.792;2023-09-18T12:57:46;25.10;99.90
7366;DHT22;3723;52.220;8.792;2023-09-18T13:00:21;25.10;99.90
7366;DHT22;3723;52.220;8.792;2023-09-18T13:02:49;25.30;99.90
7366;DHT22;3723;52.220;8.792;2023-09-18T13:05:32;25.40;99.90
7366;DHT22;3723;52.220;8.792;2023-09-18T13:08:04;25.60;99.90
7366;DHT22;3723;52.220;8.792;2023-09-18T13:11:01;26.70;99.90
7366;DHT22;3723;52.220;8.792;2023-09-18T13:13:28;28.60;99.90
7366;DHT22;3723;52.220;8.792;2023-09-18T13:16:04;29.90;99.90
7366;DHT22;3723;52.220;8.792;2023-09-18T13:18:31;30.50;99.90
7366;DHT22;3723;52.220;8.792;2023-09-18T13:20:58;30.70;99.90
7366;DHT22;3723;52.220;8.792;2023-09-18T13:23:40;30.40;99.90
7366;DHT22;3723;52.220;8.792;2023-09-18T13:26:08;30.00;99.90
7366;DHT22;3723;52.220;8.792;2023-09-18T13:28:39;29.20;99.90
7366;DHT22;3723;52.220;8.792;2023-09-18T13:31:12;29.10;99.90
7366;DHT22;3723;52.220;8.792;2023-09-18T13:33:39;29.40;99.90
7366;DHT22;3723;52.220;8.792;2023-09-18T13:36:09;29.30;99.90
7366;DHT22;3723;52.220;8.792;2023-09-18T13:38:43;29.30;99.90
7366;DHT22;3723;52.220;8.792;2023-09-18T13:41:11;28.80;99.90
7366;DHT22;3723;52.220;8.792;2023-09-18T13:43:38;28.20;99.90
7366;DHT22;3723;52.220;8.792;2023-09-18T13:46:18;27.70;99.90
7366;DHT22;3723;52.220;8.792;2023-09-18T13:48:52;27.40;99.90
7366;DHT22;3723;52.220;8.792;2023-09-18T13:51:31;27.40;99.90
7366;DHT22;3723;52.220;8.792;2023-09-18T13:54:28;27.30;99.90
7366;DHT22;3723;52.220;8.792;2023-09-18T13:58:12;27.20;99.90
7366;DHT22;3723;52.220;8.792;2023-09-18T14:00:25;27.50;99.90
7366;DHT22;3723;52.220;8.792;2023-09-18T14:03:28;27.90;99.90
7366;DHT22;3723;52.220;8.792;2023-09-18T14:16:10;32.10;99.90
7366;DHT22;3723;52.220;8.792;2023-09-18T14:25:49;32.20;99.90
7366;DHT22;3723;52.220;8.792;2023-09-18T14:28:32;31.50;99.90
7366;DHT22;3723;52.220;8.792;2023-09-18T14:31:05;30.70;99.90
7366;DHT22;3723;52.220;8.792;2023-09-18T14:34:22;29.70;99.90
7366;DHT22;3723;52.220;8.792;2023-09-18T14:42:45;26.50;99.90
7366;DHT22;3723;52.220;8.792;2023-09-18T14:45:47;25.80;99.90
7366;DHT22;3723;52.220;8.792;2023-09-18T14:48:14;25.30;99.90
7366;DHT22;3723;52.220;8.792;2023-09-18T14:50:57;24.90;99.90
7366;DHT22;3723;52.220;8.792;2023-09-18T14:53:44;24.50;99.90
7366;DHT22;3723;52.220;8.792;2023-09-18T14:56:31;24.30;99.90
7366;DHT22;3723;52.220;8.792;2023-09-18T14:59:19;24.20;99.90
7366;DHT22;3723;52.220;8.792;2023-09-18T15:01:46;23.80;99.90
7366;DHT22;3723;52.220;8.792;2023-09-18T15:04:14;23.30;99.90
7366;DHT22;3723;52.220;8.792;2023-09-18T15:06:41;22.70;99.90
7366;DHT22;3723;52.220;8.792;2023-09-18T15:09:08;22.00;99.90
7366;DHT22;3723;52.220;8.792;2023-09-18T15:11:35;21.50;99.90
7366;DHT22;3723;52.220;8.792;2023-09-18T15:14:02;21.10;99.90
7366;DHT22;3723;52.220;8.792;2023-09-18T15:16:31;20.80;99.90
7366;DHT22;3723;52.220;8.792;2023-09-18T15:18:58;20.90;99.90
7366;DHT22;3723;52.220;8.792;2023-09-18T15:21:28;21.40;99.90
7366;DHT22;3723;52.220;8.792;2023-09-18T15:23:54;22.10;99.90
7366;DHT22;3723;52.220;8.792;2023-09-18T15:28:50;24.30;99.90
7366;DHT22;3723;52.220;8.792;2023-09-18T15:31:16;25.50;99.90
7366;DHT22;3723;52.220;8.792;2023-09-18T15:33:46;26.30;99.90
7366;DHT22;3723;52.220;8.792;2023-09-18T15:36:14;26.80;99.90
7366;DHT22;3723;52.220;8.792;2023-09-18T15:38:44;27.10;99.90
7366;DHT22;3723;52.220;8.792;2023-09-18T15:41:16;27.30;99.90
7366;DHT22;3723;52.220;8.792;2023-09-18T15:43:54;27.40;99.90
7366;DHT22;3723;52.220;8.792;2023-09-18T15:46:29;27.50;99.90
7366;DHT22;3723;52.220;8.792;2023-09-18T15:49:06;27.90;99.90
7366;DHT22;3723;52.220;8.792;2023-09-18T15:51:33;28.00;99.90
7366;DHT22;3723;52.220;8.792;2023-09-18T15:54:00;28.10;99.90
7366;DHT22;3723;52.220;8.792;2023-09-18T15:56:30;28.20;99.90
7366;DHT22;3723;52.220;8.792;2023-09-18T15:58:59;28.30;99.90
7366;DHT22;3723;52.220;8.792;2023-09-18T16:01:26;28.30;99.90
7366;DHT22;3723;52.220;8.792;2023-09-18T16:03:53;28.20;99.90
7366;DHT22;3723;52.220;8.792;2023-09-18T16:06:23;28.00;99.90
7366;DHT22;3723;52.220;8.792;2023-09-18T16:08:51;28.00;99.90
7366;DHT22;3723;52.220;8.792;2023-09-18T16:11:22;28.00;99.90
7366;DHT22;3723;52.220;8.792;2023-09-18T16:13:49;27.90;99.90
7366;DHT22;3723;52.220;8.792;2023-09-18T16:16:18;27.80;99.90
7366;DHT22;3723;52.220;8.792;2023-09-18T16:18:46;27.60;99.90
7366;DHT22;3723;52.220;8.792;2023-09-18T16:21:13;27.10;99.90
7366;DHT22;3723;52.220;8.792;2023-09-18T16:23:41;26.40;99.90
7366;DHT22;3723;52.220;8.792;2023-09-18T16:26:08;25.60;99.90
7366;DHT22;3723;52.220;8.792;2023-09-18T16:28:35;25.00;99.90
7366;DHT22;3723;52.220;8.792;2023-09-18T16:31:02;24.70;99.90
7366;DHT22;3723;52.220;8.792;2023-09-18T16:33:32;24.70;99.90
7366;DHT22;3723;52.220;8.792;2023-09-18T16:35:59;24.70;99.90
7366;DHT22;3723;52.220;8.792;2023-09-18T16:38:26;24.60;99.90
7366;DHT22;3723;52.220;8.792;2023-09-18T16:40:54;24.30;99.90
7366;DHT22;3723;52.220;8.792;2023-09-18T16:43:21;24.10;99.90
7366;DHT22;3723;52.220;8.792;2023-09-18T16:45:48;23.80;99.90
7366;DHT22;3723;52.220;8.792;2023-09-18T16:48:15;23.70;99.90
7366;DHT22;3723;52.220;8.792;2023-09-18T16:50:42;23.50;99.90
7366;DHT22;3723;52.220;8.792;2023-09-18T16:53:09;23.10;99.90
7366;DHT22;3723;52.220;8.792;2023-09-18T16:55:36;22.60;99.90
7366;DHT22;3723;52.220;8.792;2023-09-18T16:58:04;22.10;99.90
7366;DHT22;3723;52.220;8.792;2023-09-18T17:00:31;21.60;99.90
7366;DHT22;3723;52.220;8.792;2023-09-18T17:02:58;21.30;99.90
7366;DHT22;3723;52.220;8.792;2023-09-18T17:05:25;20.90;99.90
7366;DHT22;3723;52.220;8.792;2023-09-18T17:07:52;20.70;99.90
7366;DHT22;3723;52.220;8.792;2023-09-18T17:10:19;20.50;99.90
7366;DHT22;3723;52.220;8.792;2023-09-18T17:12:45;20.20;99.90
7366;DHT22;3723;52.220;8.792;2023-09-18T17:15:14;20.00;99.90
7366;DHT22;3723;52.220;8.792;2023-09-18T17:17:41;19.90;99.90
7366;DHT22;3723;52.220;8.792;2023-09-18T17:20:09;19.70;99.90
7366;DHT22;3723;52.220;8.792;2023-09-18T17:22:36;19.60;99.90
7366;DHT22;3723;52.220;8.792;2023-09-18T17:25:03;19.50;99.90
7366;DHT22;3723;52.220;8.792;2023-09-18T17:27:31;19.30;99.90
7366;DHT22;3723;52.220;8.792;2023-09-18T17:29:59;19.20;99.90
7366;DHT22;3723;52.220;8.792;2023-09-18T17:32:28;19.20;99.90
7366;DHT22;3723;52.220;8.792;2023-09-18T17:34:55;19.10;99.90
7366;DHT22;3723;52.220;8.792;2023-09-18T17:37:23;19.10;99.90
7366;DHT22;3723;52.220;8.792;2023-09-18T17:39:51;19.00;99.90
7366;DHT22;3723;52.220;8.792;2023-09-18T17:42:18;19.10;99.90
7366;DHT22;3723;52.220;8.792;2023-09-18T17:44:45;19.10;99.90
7366;DHT22;3723;52.220;8.792;2023-09-18T17:47:12;19.20;99.90
7366;DHT22;3723;52.220;8.792;2023-09-18T17:49:42;19.10;99.90
7366;DHT22;3723;52.220;8.792;2023-09-18T17:52:09;19.10;99.90
7366;DHT22;3723;52.220;8.792;2023-09-18T17:54:37;19.00;99.90
7366;DHT22;3723;52.220;8.792;2023-09-18T17:57:04;19.00;99.90
7366;DHT22;3723;52.220;8.792;2023-09-18T17:59:31;19.00;99.90
7366;DHT22;3723;52.220;8.792;2023-09-18T18:01:58;19.00;99.90
7366;DHT22;3723;52.220;8.792;2023-09-18T18:04:26;19.00;99.90
7366;DHT22;3723;52.220;8.792;2023-09-18T18:06:54;19.00;99.90
7366;DHT22;3723;52.220;8.792;2023-09-18T18:09:21;19.00;99.90
7366;DHT22;3723;52.220;8.792;2023-09-18T18:11:48;19.00;99.90
7366;DHT22;3723;52.220;8.792;2023-09-18T18:14:15;19.00;99.90
7366;DHT22;3723;52.220;8.792;2023-09-18T18:16:44;19.00;99.90
7366;DHT22;3723;52.220;8.792;2023-09-18T18:19:15;19.00;99.90
7366;DHT22;3723;52.220;8.792;2023-09-18T18:21:42;19.10;99.90
7366;DHT22;3723;52.220;8.792;2023-09-18T18:24:10;19.10;99.90
7366;DHT22;3723;52.220;8.792;2023-09-18T18:26:39;19.10;99.90
7366;DHT22;3723;52.220;8.792;2023-09-18T18:29:06;19.10;99.90
7366;DHT22;3723;52.220;8.792;2023-09-18T18:31:34;19.10;99.90
7366;DHT22;3723;52.220;8.792;2023-09-18T18:34:01;19.00;99.90
7366;DHT22;3723;52.220;8.792;2023-09-18T18:36:30;19.10;99.90
7366;DHT22;3723;52.220;8.792;2023-09-18T18:38:57;19.20;99.90
7366;DHT22;3723;52.220;8.792;2023-09-18T18:41:26;19.30;99.90
7366;DHT22;3723;52.220;8.792;2023-09-18T18:43:54;19.40;99.90
7366;DHT22;3723;52.220;8.792;2023-09-18T18:46:22;19.60;99.90
7366;DHT22;3723;52.220;8.792;2023-09-18T18:48:49;19.70;99.90
7366;DHT22;3723;52.220;8.792;2023-09-18T18:51:17;19.90;99.90
7366;DHT22;3723;52.220;8.792;2023-09-18T18:53:46;19.90;99.90
7366;DHT22;3723;52.220;8.792;2023-09-18T18:56:14;20.00;99.90
7366;DHT22;3723;52.220;8.792;2023-09-18T18:58:44;20.00;99.90
7366;DHT22;3723;52.220;8.792;2023-09-18T19:01:14;20.00;99.90
7366;DHT22;3723;52.220;8.792;2023-09-18T19:03:42;20.10;99.90
7366;DHT22;3723;52.220;8.792;2023-09-18T19:06:09;20.10;99.90
7366;DHT22;3723;52.220;8.792;2023-09-18T19:08:37;20.10;99.90
7366;DHT22;3723;52.220;8.792;2023-09-18T19:11:05;20.10;99.90
7366;DHT22;3723;52.220;8.792;2023-09-18T19:13:33;20.10;99.90
7366;DHT22;3723;52.220;8.792;2023-09-18T19:16:02;20.10;99.90
7366;DHT22;3723;52.220;8.792;2023-09-18T19:18:29;20.10;99.90
7366;DHT22;3723;52.220;8.792;2023-09-18T19:20:56;20.10;99.90
7366;DHT22;3723;52.220;8.792;2023-09-18T19:23:24;20.20;99.90
7366;DHT22;3723;52.220;8.792;2023-09-18T19:25:53;20.10;99.90
7366;DHT22;3723;52.220;8.792;2023-09-18T19:28:22;19.80;99.90
7366;DHT22;3723;52.220;8.792;2023-09-18T19:30:56;19.50;99.90
7366;DHT22;3723;52.220;8.792;2023-09-18T19:33:26;19.00;99.90
7366;DHT22;3723;52.220;8.792;2023-09-18T19:35:54;18.50;99.90
7366;DHT22;3723;52.220;8.792;2023-09-18T19:38:26;18.20;99.90
7366;DHT22;3723;52.220;8.792;2023-09-18T19:40:53;17.80;99.90
7366;DHT22;3723;52.220;8.792;2023-09-18T19:43:20;17.50;99.90
7366;DHT22;3723;52.220;8.792;2023-09-18T19:45:47;17.10;99.90
7366;DHT22;3723;52.220;8.792;2023-09-18T19:48:16;16.70;99.90
7366;DHT22;3723;52.220;8.792;2023-09-18T19:50:48;16.30;99.90
7366;DHT22;3723;52.220;8.792;2023-09-18T19:53:16;16.10;99.90
7366;DHT22;3723;52.220;8.792;2023-09-18T19:55:44;16.00;99.90